Lulu Pass Weather Station

This weather station is located at 10020ft near Lulu Pass at the head of Fisher Creek. This data can be used with temperature and precipitation data from the Fisher Creek SNOTEL site. This data can be viewed directly on datagarrison.com

Elevation
10020ft
Jump to table bottom
Date Time Temperature
deg F
RH, % Wind Speed Wind Gust Wind Direction
04/24/24 13:00 40.9 34 11 20 NW - 300
04/24/24 12:00 40.6 33 7 18 W - 274
04/24/24 11:00 38.8 32 8 17 SW - 213
04/24/24 10:00 38.2 30 6 14 S - 198
04/24/24 9:00 38.2 34 4 9 SE - 150
04/24/24 8:00 34.2 37 6 9 SE - 153
04/24/24 7:00 31.5 40 7 11 S - 164
04/24/24 6:00 32.6 38 5 10 S - 173
04/24/24 5:00 31.8 39 4 11 SW - 204
04/24/24 4:00 32.3 38 4 9 SW - 212
04/24/24 3:00 31.8 39 5 11 SW - 206
04/24/24 2:00 32.2 38 5 14 SW - 206
04/24/24 1:00 31.8 36 5 9 SW - 208
04/23/24 24:00 31.8 36 3 9 S - 173
04/23/24 23:00 29.7 47 6 10 S - 197
04/23/24 22:00 32.0 36 6 10 SW - 218
04/23/24 21:00 33.1 35 5 10 SW - 229
04/23/24 20:00 33.7 34 5 14 W - 279
04/23/24 19:00 35.0 34 11 20 NW - 305
04/23/24 18:00 37.8 29 11 20 NW - 300
04/23/24 17:00 38.2 35 12 18 NW - 323
04/23/24 16:00 37.0 37 8 15 NW - 337
04/23/24 15:00 36.4 39 3 10 NE - 51
04/23/24 14:00 35.3 39 5 13 S - 185
04/23/24 13:00 32.4 42 6 16 S - 194
04/23/24 12:00 33.5 43 7 15 S - 168
04/23/24 11:00 30.6 44 8 19 S - 163
04/23/24 10:00 25.5 48 8 20 S - 171
04/23/24 9:00 24.2 49 4 17 E - 90
04/23/24 8:00 19.9 55 5 12 NE - 66
04/23/24 7:00 17.4 61 3 10 E - 76
04/23/24 6:00 17.7 61 4 13 NE - 60
04/23/24 5:00 18.4 61 4 12 NE - 49
04/23/24 4:00 18.4 61 4 13 E - 77
04/23/24 3:00 18.8 60 4 11 SE - 119
04/23/24 2:00 20.7 51 4 8 E - 107
04/23/24 1:00 21.1 51 3 7 N - 20
04/22/24 24:00 22.6 50 6 12 N - 357
04/22/24 23:00 21.8 52 12 15 N - 357
04/22/24 22:00 24.2 47 14 17 N - 350
04/22/24 21:00 26.9 40 14 21 NW - 331
04/22/24 20:00 30.6 44 9 21 W - 277
04/22/24 19:00 33.4 36 14 30 NW - 299
04/22/24 18:00 32.7 34 14 32 W - 272
04/22/24 17:00 34.0 30 10 25 SW - 243
04/22/24 16:00 32.8 31 13 27 SW - 240
04/22/24 15:00 31.0 36 13 25 SW - 241
04/22/24 14:00 30.3 39 11 25 W - 253
04/22/24 13:00 29.3 43 11 24 SW - 246
04/22/24 12:00 25.5 48 10 23 SW - 241